Ride Results

Toongabbie No Frills (23-09-2012)
Ride distance: 80.0 km

Outcomes - Toongabbie No Frills (23-09-2012)
Division No. of Entries Retired / DNE Completed Withdrawn Ineligible V/O Percentage Completed
HW 3 - 3 - - - 100.00%
MW 12 - 10 - - 2 83.33%
LW 11 - 10 - - 1 90.91%
JN 4 - 4 - - - 100.00%
Totals 30 - 27 - - 3 90.00%
Results - Toongabbie No Frills (23-09-2012)
No. Rider Horse Place Time Leg Speeds Total
Km/Hr
H/R bpm
Heavyweight
65 Carl Adamson Sundown Park Miss Jacob 1 (BC) 5:19:00 16.4, 13.8 15.05 32, 41, 48 (Avg:44)
82 Jarrod Robinson Julian 1 5:19:00 16.4, 13.8 15.05 34, 48, 56 (Avg:52)
18 Ken Bradley Saydor 3 6:13:00 12.8, 12.9 12.87 40, 42, 56 (Avg:49)
Middleweight
42 Hans Peuker Marybank Celia 1 (BC) 4:51:00 17.2, 15.7 16.49 32, 38, 44 (Avg:41)
17 Sallyann Duke Ramigil Sapphyre 2 5:00:00 16.9, 15.1 16.00 40, 50, 56 (Avg:53)
219 Caroline Noble Gaelic Storm 3 5:15:00 16.1, 14.4 15.24 36, 46, 58 (Avg:52)
34 Amanda Bengtsson Shakanda Samir 4 5:46:00 12.9, 14.9 13.87 40, 38, 51 (Avg:44)
160 Jo-Anne Francis Musk Valley Rememberance 5 5:56:00 14.3, 12.6 13.48 36, 0, 42 (Avg:21)
786 Paul Bryson Pterion Rose 6 6:08:00 13.0, 13.0 13.04 36, 37, 54 (Avg:45)
173 Robyn Albers Tubbarubba Phoenix 7 6:10:00 12.9, 12.9 12.97 34, 46, 48 (Avg:47)
172 Michael Cadman A'landell Kwaint 7 6:10:00 12.9, 12.9 12.97 35, 40, 44 (Avg:42)
227 Karen Vickers Allamir Mars 7 6:10:00 12.9, 12.9 12.97 32, 44, 44 (Avg:44)
189 Sally Cowan Waitara Sun Sun 10 6:13:00 12.8, 12.9 12.87 36, 44, 47 (Avg:45)
168 Trish VanDonk Mullungdung Begorrah Heart Rate L2 0:00:00 12.9, 47.0 - 40, 51, 62 (Avg:56)
141 Jackie Drayton Clovelly Park Shandara Lame L1 0:00:00 17.2 - 40, 43 (Avg:43)
Lightweight
237 Sharyn Wyatt BJ 1 (BC) 4:48:00 17.2, 16.1 16.67 32, 40, 44 (Avg:42)
22 Sarah McLaughlin Elphyn Shafyre 2 4:52:00 16.6, 16.2 16.44 36, 43, 46 (Avg:44)
183 Nicky Robinson Sterling Soldier 2 4:52:00 16.6, 16.2 16.44 32, 42, 44 (Avg:43)
221 Susan Gill Horseplay Joby 4 5:49:00 14.3, 13.1 13.75 36, 48, 48 (Avg:48)
791 Marty Bryson Quintally Merlin 5 6:08:00 13.0, 13.0 13.04 34, 40, 48 (Avg:44)
113 Lisa Worden Clarendon Raziah 6 6:10:00 12.7, 13.1 12.97 36, 40, 40 (Avg:40)
63 Pamela Cox Castlebar Temeraire 7 6:15:00 12.8, 12.7 12.80 44, 40, 42 (Avg:41)
11 Rohan Stanes Kazoo Park Poetic Dream 8 6:57:00 11.6, 11.3 11.51 36, 40, 41 (Avg:40)
792 Melinda Stevens Shuja Bint Melika 8 6:57:00 11.5, 11.4 11.51 32, 38, 42 (Avg:40)
230 Rebecca Stoneman Castlebar Goblin 10 7:04:00 11.9, 10.7 11.32 40, 44, 44 (Avg:44)
85 Belinda Kolek Ali Najah Lame L2 0:00:00 16.9, 16.9 - 40, 46, 50 (Avg:48)
Junior
14 Katrina Griggs Sandine Jazira 1 6:09:00 12.9, 13.1 13.01 32, 41, 48 (Avg:44)
195 Nikita Verspaandonk West Coast Exodus 1 6:09:00 12.9, 13.1 13.01 36, 48, 48 (Avg:48)
779 Bonnie Player Tuscany at Midnight 3 (BC) 6:10:00 12.7, 13.1 12.97 28, 38, 42 (Avg:40)
776 Sarah Camm Webbs Creek Spirit 4 7:04:00 11.9, 10.7 11.32 32, 37, 59 (Avg:48)